createdAt,value
2023-01-12T00:00:06.064Z,10.50
2023-01-12T00:03:48.535Z,10.60
2023-01-12T00:07:30.296Z,10.60
2023-01-12T00:11:12.102Z,10.60
2023-01-12T00:14:53.878Z,10.70
2023-01-12T00:18:35.666Z,10.70
2023-01-12T00:22:17.636Z,10.70
2023-01-12T00:25:59.389Z,10.70
2023-01-12T00:29:41.393Z,10.70
2023-01-12T00:33:23.321Z,10.70
2023-01-12T00:37:05.398Z,10.80
2023-01-12T00:40:47.114Z,10.80
2023-01-12T00:44:47.423Z,10.80
2023-01-12T00:48:30.962Z,10.80
2023-01-12T00:52:29.340Z,10.90
2023-01-12T00:56:12.365Z,10.90
2023-01-12T00:59:55.220Z,10.90
2023-01-12T01:03:37.343Z,11.00
2023-01-12T01:07:21.616Z,11.00
2023-01-12T01:11:11.670Z,11.10
2023-01-12T01:14:53.554Z,11.10
2023-01-12T01:18:35.897Z,11.20
2023-01-12T01:22:17.643Z,11.20
2023-01-12T01:26:03.880Z,11.20
2023-01-12T01:29:45.603Z,11.30
2023-01-12T01:33:27.360Z,11.40
2023-01-12T01:37:09.130Z,11.40
2023-01-12T01:40:51.292Z,11.50
2023-01-12T01:44:33.072Z,11.50
2023-01-12T01:48:17.894Z,11.50
2023-01-12T01:52:08.078Z,11.50
2023-01-12T01:55:54.374Z,11.60
2023-01-12T01:59:39.161Z,11.60
2023-01-12T02:03:21.421Z,11.60
2023-01-12T02:07:06.839Z,11.60
2023-01-12T02:10:50.356Z,11.60
2023-01-12T02:14:52.219Z,11.60
2023-01-12T02:18:49.359Z,11.50
2023-01-12T02:22:58.366Z,11.50
2023-01-12T02:27:00.242Z,11.50
2023-01-12T02:31:13.067Z,11.50
2023-01-12T02:35:15.061Z,11.50
2023-01-12T02:39:19.130Z,11.50
2023-01-12T02:43:28.913Z,11.50
2023-01-12T02:47:18.736Z,11.60
2023-01-12T02:51:12.153Z,11.50
2023-01-12T02:54:55.212Z,11.50
2023-01-12T02:58:50.675Z,11.60
2023-01-12T03:02:33.252Z,11.50
2023-01-12T03:06:18.661Z,11.50
2023-01-12T03:10:17.908Z,11.50
2023-01-12T03:14:02.829Z,11.50
2023-01-12T03:18:03.763Z,11.60
2023-01-12T03:21:48.290Z,11.60
2023-01-12T03:25:33.989Z,11.60
2023-01-12T03:29:25.394Z,11.50
2023-01-12T03:33:08.687Z,11.50
2023-01-12T03:37:03.445Z,11.60
2023-01-12T03:40:56.920Z,11.60
2023-01-12T03:44:46.412Z,11.60
2023-01-12T03:48:31.205Z,11.50
2023-01-12T03:52:13.717Z,11.60
2023-01-12T03:55:59.757Z,11.60
2023-01-12T03:59:42.000Z,11.60
2023-01-12T04:03:24.652Z,11.60
2023-01-12T04:07:06.645Z,11.60
2023-01-12T04:10:48.412Z,11.60
2023-01-12T04:14:30.172Z,11.60
2023-01-12T04:18:12.885Z,11.60
2023-01-12T04:22:13.125Z,11.60
2023-01-12T04:25:54.876Z,11.60
2023-01-12T04:29:36.657Z,11.60
2023-01-12T04:33:18.435Z,11.60
2023-01-12T04:37:03.726Z,11.60
2023-01-12T04:40:45.442Z,11.60
2023-01-12T04:44:27.440Z,11.70
2023-01-12T04:48:14.215Z,11.70
2023-01-12T04:51:55.956Z,11.70
2023-01-12T04:55:40.211Z,11.70
2023-01-12T04:59:21.980Z,11.70
2023-01-12T05:03:03.848Z,11.70
2023-01-12T05:06:45.617Z,11.70
2023-01-12T05:10:27.551Z,11.70
2023-01-12T05:14:09.326Z,11.70
2023-01-12T05:17:51.192Z,11.70
2023-01-12T05:21:32.944Z,11.70
2023-01-12T05:25:15.237Z,11.70
2023-01-12T05:28:57.042Z,11.70
2023-01-12T05:32:41.362Z,11.70
2023-01-12T05:36:25.630Z,11.70
2023-01-12T05:40:08.914Z,11.70
2023-01-12T05:43:50.970Z,11.70
2023-01-12T05:47:32.728Z,11.70
2023-01-12T05:51:14.817Z,11.70
2023-01-12T05:54:56.583Z,11.70
2023-01-12T05:58:38.371Z,11.70
2023-01-12T06:02:21.615Z,11.70
2023-01-12T06:06:04.528Z,11.70
2023-01-12T06:09:46.445Z,11.70
2023-01-12T06:13:46.731Z,11.70
2023-01-12T06:17:28.532Z,11.70
2023-01-12T06:21:10.933Z,11.70
2023-01-12T06:24:53.850Z,11.70
2023-01-12T06:28:39.819Z,11.70
2023-01-12T06:32:21.529Z,11.80
2023-01-12T06:36:04.499Z,11.80
2023-01-12T06:39:46.218Z,11.80
2023-01-12T06:43:27.980Z,11.80
2023-01-12T06:47:09.759Z,11.80
2023-01-12T06:51:00.164Z,11.70
2023-01-12T06:54:41.911Z,11.80
2023-01-12T06:58:23.790Z,11.70
2023-01-12T07:02:05.911Z,11.80
2023-01-12T07:05:47.741Z,11.80
2023-01-12T07:09:29.546Z,11.80
2023-01-12T07:13:11.396Z,11.80
2023-01-12T07:16:53.102Z,11.80
2023-01-12T07:20:35.052Z,11.70
2023-01-12T07:24:17.435Z,11.70
2023-01-12T07:27:59.273Z,11.80
2023-01-12T07:31:41.054Z,11.70
2023-01-12T07:35:25.029Z,11.80
2023-01-12T07:39:08.539Z,11.80
2023-01-12T07:43:01.993Z,11.80
2023-01-12T07:46:43.720Z,11.80
2023-01-12T07:50:28.291Z,11.80
2023-01-12T07:54:10.137Z,11.80
2023-01-12T07:57:59.426Z,11.80
2023-01-12T08:01:41.369Z,11.80
2023-01-12T08:05:23.332Z,11.80
2023-01-12T08:09:05.438Z,11.80
2023-01-12T08:12:50.911Z,11.80
2023-01-12T08:16:37.672Z,11.80
2023-01-12T08:20:24.095Z,11.80
2023-01-12T08:24:06.620Z,11.80
2023-01-12T08:27:51.785Z,11.80
2023-01-12T08:31:33.650Z,11.80
2023-01-12T08:35:20.467Z,11.80
2023-01-12T08:39:04.256Z,11.80
2023-01-12T08:42:46.037Z,11.80
2023-01-12T08:46:29.268Z,11.80
2023-01-12T08:50:11.675Z,11.90
2023-01-12T08:53:53.513Z,11.80
2023-01-12T08:57:35.336Z,11.90
2023-01-12T09:01:17.492Z,11.90
2023-01-12T09:04:59.499Z,11.90
2023-01-12T09:08:41.545Z,11.90
2023-01-12T09:12:24.549Z,11.90
2023-01-12T09:16:13.400Z,11.90
2023-01-12T09:19:55.512Z,11.90
2023-01-12T09:23:38.076Z,11.90
2023-01-12T09:27:19.895Z,11.90
2023-01-12T09:31:08.062Z,11.90
2023-01-12T09:34:49.985Z,11.90
2023-01-12T09:38:32.003Z,11.90
2023-01-12T09:42:37.865Z,11.90
2023-01-12T09:46:45.937Z,11.90
2023-01-12T09:50:33.602Z,12.00
2023-01-12T09:54:15.430Z,12.00
2023-01-12T09:58:18.103Z,12.00
2023-01-12T10:02:00.299Z,12.00
2023-01-12T10:05:52.278Z,12.00
2023-01-12T10:09:34.725Z,12.00
2023-01-12T10:13:17.204Z,12.00
2023-01-12T10:17:16.850Z,12.00
2023-01-12T10:20:59.292Z,12.00
2023-01-12T10:24:42.223Z,12.10
2023-01-12T10:28:36.946Z,12.00
2023-01-12T10:32:22.138Z,12.10
2023-01-12T10:36:17.317Z,12.20
2023-01-12T10:39:59.068Z,12.20
2023-01-12T10:43:42.679Z,12.20
2023-01-12T10:47:24.440Z,12.20
2023-01-12T10:51:18.087Z,12.20
2023-01-12T10:54:59.865Z,12.20
2023-01-12T10:58:45.882Z,12.20
2023-01-12T11:02:40.710Z,12.20
2023-01-12T11:06:31.003Z,12.20
2023-01-12T11:10:31.820Z,12.20
2023-01-12T11:14:25.352Z,12.20
2023-01-12T11:18:11.377Z,12.20
2023-01-12T11:22:04.307Z,12.20
2023-01-12T11:25:49.572Z,12.20
2023-01-12T11:29:55.567Z,12.20
2023-01-12T11:33:42.561Z,12.30
2023-01-12T11:37:24.375Z,12.20
2023-01-12T11:41:19.102Z,12.30
2023-01-12T11:45:13.014Z,12.30
2023-01-12T11:49:16.740Z,12.30
2023-01-12T11:52:59.018Z,12.40
2023-01-12T11:56:51.272Z,12.40
2023-01-12T12:00:52.396Z,12.30
2023-01-12T12:04:43.327Z,12.30
2023-01-12T12:08:30.365Z,12.30
2023-01-12T12:12:15.063Z,12.30
2023-01-12T12:16:19.768Z,12.30
2023-01-12T12:20:22.844Z,12.30
2023-01-12T12:24:22.746Z,12.30
2023-01-12T12:28:19.567Z,12.30
2023-01-12T12:32:12.425Z,12.40
2023-01-12T12:36:00.129Z,12.30
2023-01-12T12:40:05.184Z,12.30
2023-01-12T12:44:12.671Z,12.30
2023-01-12T12:48:15.808Z,12.40
2023-01-12T12:51:59.807Z,12.40
2023-01-12T12:55:42.570Z,12.30
2023-01-12T12:59:52.170Z,12.40
2023-01-12T13:03:40.113Z,12.30
2023-01-12T13:07:22.649Z,12.40
2023-01-12T13:11:05.583Z,12.30
2023-01-12T13:15:21.960Z,12.30
2023-01-12T13:19:05.887Z,12.20
2023-01-12T13:22:49.368Z,12.20
2023-01-12T13:26:34.775Z,12.10
2023-01-12T13:30:28.631Z,12.10
2023-01-12T13:34:39.091Z,12.20
2023-01-12T13:38:44.723Z,12.20
2023-01-12T13:42:46.187Z,12.20
2023-01-12T13:46:34.588Z,12.20
2023-01-12T13:50:22.263Z,12.30
2023-01-12T13:54:13.563Z,12.30
2023-01-12T13:58:00.869Z,12.30
2023-01-12T14:01:44.342Z,12.30
2023-01-12T14:05:36.711Z,12.40
2023-01-12T14:09:21.157Z,12.50
2023-01-12T14:13:02.925Z,12.60
2023-01-12T14:17:05.013Z,12.50
2023-01-12T14:20:52.423Z,12.50
2023-01-12T14:24:34.197Z,12.40
2023-01-12T14:28:18.575Z,12.30
2023-01-12T14:32:00.401Z,12.20
2023-01-12T14:35:46.969Z,12.20
2023-01-12T14:39:33.802Z,12.20
2023-01-12T14:43:35.310Z,12.10
2023-01-12T14:47:28.303Z,12.00
2023-01-12T14:51:20.984Z,12.00
2023-01-12T14:55:24.470Z,12.00
2023-01-12T14:59:13.741Z,11.90
2023-01-12T15:02:59.088Z,11.80
2023-01-12T15:06:42.797Z,11.80
2023-01-12T15:10:36.630Z,11.70
2023-01-12T15:14:25.217Z,11.80
2023-01-12T15:18:27.012Z,11.70
2023-01-12T15:22:28.770Z,11.60
2023-01-12T15:26:10.540Z,11.60
2023-01-12T15:29:52.824Z,11.60
2023-01-12T15:33:34.564Z,11.60
2023-01-12T15:37:19.067Z,11.70
2023-01-12T15:41:00.858Z,11.70
2023-01-12T15:44:46.899Z,11.80
2023-01-12T15:48:28.695Z,11.80
2023-01-12T15:52:21.184Z,11.80
2023-01-12T15:56:03.017Z,11.80
2023-01-12T15:59:45.046Z,11.80
2023-01-12T16:03:54.937Z,11.80
2023-01-12T16:07:28.706Z,11.70
2023-01-12T16:11:19.555Z,11.60
2023-01-12T16:15:01.353Z,11.50
2023-01-12T16:18:43.873Z,11.40
2023-01-12T16:22:28.081Z,11.30
2023-01-12T16:26:10.793Z,11.20
2023-01-12T16:29:53.022Z,11.10
2023-01-12T16:33:34.789Z,10.90
2023-01-12T16:37:17.400Z,10.80
2023-01-12T16:40:59.521Z,10.80
2023-01-12T16:44:41.791Z,10.70
2023-01-12T16:48:23.563Z,10.60
2023-01-12T16:52:07.499Z,10.50
2023-01-12T16:55:49.241Z,10.50
2023-01-12T16:59:30.999Z,10.40
2023-01-12T17:03:14.132Z,10.30
2023-01-12T17:06:56.056Z,10.20
2023-01-12T17:10:37.957Z,10.10
2023-01-12T17:14:26.935Z,10.00
2023-01-12T17:18:08.940Z,10.00
2023-01-12T17:21:51.781Z,9.90
2023-01-12T17:25:33.786Z,9.80
2023-01-12T17:29:15.845Z,9.70
2023-01-12T17:32:57.693Z,9.70
2023-01-12T17:36:40.117Z,9.60
2023-01-12T17:40:21.897Z,9.60
2023-01-12T17:44:05.302Z,9.50
2023-01-12T17:47:47.068Z,9.50
2023-01-12T17:51:28.922Z,9.40
2023-01-12T17:55:10.887Z,9.30
2023-01-12T17:58:54.013Z,9.30
2023-01-12T18:02:36.449Z,9.20
2023-01-12T18:06:26.570Z,9.30
2023-01-12T18:10:10.404Z,9.20
2023-01-12T18:13:52.594Z,9.30
2023-01-12T18:17:34.501Z,9.30
2023-01-12T18:21:20.609Z,9.30
2023-01-12T18:25:02.471Z,9.40
2023-01-12T18:28:45.266Z,9.40
2023-01-12T18:32:27.015Z,9.50
2023-01-12T18:36:10.997Z,9.50
2023-01-12T18:39:52.728Z,9.50
2023-01-12T18:43:34.518Z,9.40
2023-01-12T18:47:34.917Z,9.30
2023-01-12T18:51:35.455Z,9.20
2023-01-12T18:55:17.259Z,9.10
2023-01-12T18:58:59.029Z,9.00
2023-01-12T19:02:41.906Z,8.80
2023-01-12T19:06:28.501Z,8.70
2023-01-12T19:10:10.531Z,8.60
2023-01-12T19:14:11.204Z,8.70
2023-01-12T19:17:52.934Z,8.60
2023-01-12T19:21:53.877Z,8.60
2023-01-12T19:26:13.900Z,8.60
2023-01-12T19:29:55.822Z,8.50
2023-01-12T19:33:38.887Z,8.50
2023-01-12T19:37:20.675Z,8.50
2023-01-12T19:41:12.675Z,8.50
2023-01-12T19:44:54.662Z,8.50
2023-01-12T19:48:37.566Z,8.40
2023-01-12T19:52:19.911Z,8.40
2023-01-12T19:56:01.787Z,8.40
2023-01-12T19:59:45.183Z,8.20
2023-01-12T20:03:26.974Z,8.20
2023-01-12T20:07:08.822Z,8.20
2023-01-12T20:10:58.993Z,8.20
2023-01-12T20:14:40.955Z,8.30
2023-01-12T20:18:22.980Z,8.40
2023-01-12T20:22:04.792Z,8.50
2023-01-12T20:25:46.550Z,8.50
2023-01-12T20:29:28.378Z,8.60
2023-01-12T20:33:11.229Z,8.60
2023-01-12T20:36:53.082Z,8.60
2023-01-12T20:40:34.873Z,8.60
2023-01-12T20:44:17.197Z,8.60
2023-01-12T20:47:59.024Z,8.70
2023-01-12T20:51:40.876Z,8.70
2023-01-12T20:55:22.633Z,8.60
2023-01-12T20:59:04.514Z,8.60
2023-01-12T21:02:46.391Z,8.50
2023-01-12T21:06:28.247Z,8.50
2023-01-12T21:10:12.020Z,8.50
2023-01-12T21:13:53.900Z,8.40
2023-01-12T21:17:39.017Z,8.30
2023-01-12T21:21:20.789Z,8.30
2023-01-12T21:25:02.757Z,8.30
2023-01-12T21:28:44.585Z,8.20
2023-01-12T21:32:28.125Z,8.30
2023-01-12T21:36:13.087Z,8.20
2023-01-12T21:39:54.917Z,8.10
2023-01-12T21:43:36.743Z,8.10
2023-01-12T21:47:18.484Z,8.20
2023-01-12T21:51:08.484Z,8.20
2023-01-12T21:54:53.841Z,8.20
2023-01-12T21:58:36.686Z,8.20
2023-01-12T22:02:18.549Z,8.30
2023-01-12T22:06:08.667Z,8.30
2023-01-12T22:09:50.452Z,8.30
2023-01-12T22:13:32.387Z,8.40
2023-01-12T22:17:14.109Z,8.40
2023-01-12T22:21:02.166Z,8.40
2023-01-12T22:24:43.913Z,8.40
2023-01-12T22:28:25.681Z,8.40
2023-01-12T22:32:09.550Z,8.30
2023-01-12T22:35:51.325Z,8.30
2023-01-12T22:39:33.154Z,8.30
2023-01-12T22:43:27.004Z,8.20
2023-01-12T22:47:08.899Z,8.20
2023-01-12T22:50:53.357Z,8.20
2023-01-12T22:54:35.094Z,8.20
2023-01-12T22:58:17.155Z,8.20
2023-01-12T23:02:18.986Z,8.30
2023-01-12T23:06:00.832Z,8.20
2023-01-12T23:09:42.822Z,8.10
2023-01-12T23:13:24.600Z,8.10
2023-01-12T23:17:06.308Z,8.10
2023-01-12T23:20:49.373Z,8.10
2023-01-12T23:24:31.130Z,8.10
2023-01-12T23:28:14.409Z,8.00
2023-01-12T23:31:56.196Z,8.00
2023-01-12T23:35:40.384Z,7.90
2023-01-12T23:39:22.446Z,8.00
2023-01-12T23:43:04.195Z,7.90
2023-01-12T23:46:46.055Z,7.90
2023-01-12T23:50:27.857Z,7.80
2023-01-12T23:54:13.085Z,7.70
2023-01-12T23:57:54.842Z,7.70
